Messwerte Nadschaf

Temperatur

Temperatur
°C
1659898800 22.00 22.00
1659902400 23.00 23.00
1659906000 0.00 0.00
1659909600 1.00 1.00 39
1659913200 2.00 2.00
1659916800 3.00 3.00 37
1659920400 4.00 4.00
1659924000 5.00 5.00 37
1659927600 6.00 6.00 36
1659931200 7.00 7.00 36
1659934800 8.00 8.00 37
1659938400 9.00 9.00 38
1659942000 10.00 10.00 41
1659945600 11.00 11.00 44
1659949200 12.00 12.00 44
1659952800 13.00 13.00
1659956400 14.00 14.00 45
1659960000 15.00 15.00 46
1659963600 16.00 16.00 45
1659967200 17.00 17.00
1659970800 18.00 18.00 44
1659974400 19.00 19.00 42
1659978000 20.00 20.00 41
1659981600 21.00 21.00 40

Aktuellste Messwerte

Wettercharakter
Wetter: meist klar
Temperatur
40 °C
Feuchtigkeit
15 %
Wind
15 km/hWindrichtung: Nordwest
Luftdruck
1000 hPa
Messzeit: 8. August 2022, 21.00Datenquelle: METAR

Weitere Messstationen in der Nähe

Messstation Temperatur Entfernung
Bagdad 39 °C 139 km
Rafha 41 °C 274 km
Arar 39 °C 325 km
Basrah 39 °C 364 km
Kermanshah 32 °C 364 km
Silemani - 410 km
Abadan 43 °C 414 km

Wind

Windrichtung Böen Mittelwind
° km/h km/h
1659898800 22.00 21.00 - 22.00
1659902400 23.00 22.00 - 23.00
1659906000 0.00 23.00 - 0.00
1659909600 1.00 0.00 - 1.00 340° 15
1659913200 2.00 1.00 - 2.00
1659916800 3.00 2.00 - 3.00 350° 15
1659920400 4.00 3.00 - 4.00
1659924000 5.00 4.00 - 5.00 330° 15
1659927600 6.00 5.00 - 6.00 330° 15
1659931200 7.00 6.00 - 7.00 340° 15
1659934800 8.00 7.00 - 8.00 330° 15
1659938400 9.00 8.00 - 9.00 330° 15
1659942000 10.00 9.00 - 10.00 340° 20
1659945600 11.00 10.00 - 11.00 330° 20
1659949200 12.00 11.00 - 12.00 360° 20
1659952800 13.00 12.00 - 13.00
1659956400 14.00 13.00 - 14.00 360° 20
1659960000 15.00 14.00 - 15.00 340° 20
1659963600 16.00 15.00 - 16.00 360° 20
1659967200 17.00 16.00 - 17.00
1659970800 18.00 17.00 - 18.00 360° 15
1659974400 19.00 18.00 - 19.00 360° 15
1659978000 20.00 19.00 - 20.00 350° 20
1659981600 21.00 20.00 - 21.00 330° 15

Ihre Wetterstation

Fehlt Ihre Wetterstation auf unserem Portal?

Schreiben Sie an network@meteonews.ch